createdAt,value
2023-02-15T00:02:02.737Z,15.63
2023-02-15T00:04:47.790Z,14.48
2023-02-15T00:07:16.752Z,16.33
2023-02-15T00:09:43.759Z,14.82
2023-02-15T00:12:11.281Z,15.98
2023-02-15T00:14:38.224Z,15.07
2023-02-15T00:17:05.000Z,16.15
2023-02-15T00:19:31.911Z,15.30
2023-02-15T00:21:58.749Z,14.43
2023-02-15T00:24:25.608Z,14.40
2023-02-15T00:26:53.505Z,14.90
2023-02-15T00:29:21.103Z,14.57
2023-02-15T00:31:48.005Z,14.32
2023-02-15T00:34:19.749Z,13.90
2023-02-15T00:36:46.926Z,14.20
2023-02-15T00:39:16.393Z,13.45
2023-02-15T00:41:44.768Z,13.65
2023-02-15T00:44:13.002Z,14.10
2023-02-15T00:46:40.168Z,12.98
2023-02-15T00:49:10.132Z,14.05
2023-02-15T00:51:38.567Z,14.20
2023-02-15T00:54:05.837Z,13.48
2023-02-15T00:56:32.882Z,14.75
2023-02-15T00:58:59.651Z,13.73
2023-02-15T01:01:26.847Z,14.48
2023-02-15T01:03:54.000Z,14.73
2023-02-15T01:06:20.857Z,15.88
2023-02-15T01:08:48.816Z,14.48
2023-02-15T01:11:24.368Z,15.95
2023-02-15T01:13:53.753Z,15.07
2023-02-15T01:16:20.909Z,15.20
2023-02-15T01:18:48.214Z,15.43
2023-02-15T01:21:19.097Z,14.32
2023-02-15T01:23:46.473Z,14.57
2023-02-15T01:26:13.963Z,14.68
2023-02-15T01:28:40.991Z,14.77
2023-02-15T01:31:10.521Z,16.05
2023-02-15T01:33:38.528Z,15.10
2023-02-15T01:36:05.761Z,14.50
2023-02-15T01:38:33.079Z,15.52
2023-02-15T01:41:19.838Z,15.15
2023-02-15T01:43:49.081Z,16.40
2023-02-15T01:46:19.023Z,15.85
2023-02-15T01:48:48.796Z,16.00
2023-02-15T01:51:19.937Z,16.45
2023-02-15T01:53:58.403Z,15.68
2023-02-15T01:56:33.198Z,16.60
2023-02-15T01:59:04.689Z,16.73
2023-02-15T02:01:31.591Z,17.10
2023-02-15T02:04:05.839Z,16.55
2023-02-15T02:06:34.347Z,17.85
2023-02-15T02:09:02.005Z,16.17
2023-02-15T02:11:29.049Z,16.40
2023-02-15T02:13:57.033Z,15.82
2023-02-15T02:16:48.719Z,16.95
2023-02-15T02:19:53.631Z,16.20
2023-02-15T02:22:38.430Z,16.00
2023-02-15T02:25:17.684Z,15.98
2023-02-15T02:27:59.705Z,16.42
2023-02-15T02:30:48.060Z,16.20
2023-02-15T02:33:21.208Z,16.45
2023-02-15T02:36:21.990Z,17.25
2023-02-15T02:39:04.092Z,17.13
2023-02-15T02:41:39.200Z,16.88
2023-02-15T02:44:13.669Z,17.75
2023-02-15T02:46:56.563Z,18.02
2023-02-15T02:49:52.753Z,17.35
2023-02-15T02:52:39.969Z,17.73
2023-02-15T02:55:12.927Z,16.42
2023-02-15T02:57:47.472Z,17.85
2023-02-15T03:00:16.607Z,18.85
2023-02-15T03:02:48.230Z,18.50
2023-02-15T03:05:19.314Z,18.40
2023-02-15T03:07:50.433Z,18.08
2023-02-15T03:10:21.689Z,18.38
2023-02-15T03:12:52.550Z,16.92
2023-02-15T03:15:50.549Z,18.65
2023-02-15T03:18:21.151Z,18.10
2023-02-15T03:20:48.781Z,17.40
2023-02-15T03:23:21.230Z,18.42
2023-02-15T03:25:53.385Z,19.42
2023-02-15T03:28:31.547Z,19.05
2023-02-15T03:31:02.533Z,18.35
2023-02-15T03:33:30.119Z,18.38
2023-02-15T03:36:22.465Z,18.92
2023-02-15T03:39:00.656Z,18.92
2023-02-15T03:41:33.169Z,19.13
2023-02-15T03:44:24.477Z,20.02
2023-02-15T03:47:03.508Z,19.75
2023-02-15T03:49:41.856Z,19.48
2023-02-15T03:52:11.340Z,20.52
2023-02-15T03:54:45.701Z,18.65
2023-02-15T03:57:43.199Z,21.15
2023-02-15T04:00:37.241Z,19.15
2023-02-15T04:03:09.857Z,19.88
2023-02-15T04:05:36.723Z,19.98
2023-02-15T04:08:04.184Z,18.80
2023-02-15T04:10:49.334Z,19.65
2023-02-15T04:13:16.102Z,19.67
2023-02-15T04:16:01.733Z,20.00
2023-02-15T04:18:47.264Z,18.58
2023-02-15T04:21:32.673Z,19.05
2023-02-15T04:24:18.216Z,20.77
2023-02-15T04:26:45.026Z,19.58
2023-02-15T04:29:11.957Z,19.20
2023-02-15T04:31:38.856Z,18.05
2023-02-15T04:34:05.571Z,18.80
2023-02-15T04:36:32.312Z,18.05
2023-02-15T04:38:59.088Z,18.08
2023-02-15T04:41:25.861Z,17.48
2023-02-15T04:43:52.634Z,16.23
2023-02-15T04:46:19.437Z,16.85
2023-02-15T04:48:46.131Z,16.92
2023-02-15T04:51:12.902Z,16.92
2023-02-15T04:53:39.585Z,17.25
2023-02-15T04:56:06.299Z,17.00
2023-02-15T04:58:33.083Z,17.52
2023-02-15T05:01:00.491Z,16.48
2023-02-15T05:03:27.319Z,16.52
2023-02-15T05:05:54.031Z,15.30
2023-02-15T05:08:20.818Z,16.30
2023-02-15T05:10:49.819Z,15.02
2023-02-15T05:13:16.902Z,15.02
2023-02-15T05:15:49.394Z,15.45
2023-02-15T05:18:16.743Z,15.65
2023-02-15T05:20:43.707Z,14.88
2023-02-15T05:23:10.904Z,15.07
2023-02-15T05:25:56.378Z,14.27
2023-02-15T05:28:25.093Z,15.27
2023-02-15T05:31:04.005Z,14.35
2023-02-15T05:33:31.001Z,14.35
2023-02-15T05:35:57.837Z,16.13
2023-02-15T05:38:24.613Z,13.50
2023-02-15T05:40:52.334Z,14.82
2023-02-15T05:43:19.670Z,13.60
2023-02-15T05:45:50.982Z,14.63
2023-02-15T05:48:18.634Z,14.35
2023-02-15T05:50:45.860Z,14.57
2023-02-15T05:53:13.228Z,14.25
2023-02-15T05:55:42.977Z,13.88
2023-02-15T05:58:09.758Z,13.25
2023-02-15T06:00:38.144Z,13.98
2023-02-15T06:03:05.065Z,13.98
2023-02-15T06:05:31.795Z,13.50
2023-02-15T06:07:58.564Z,13.65
2023-02-15T06:10:25.304Z,12.95
2023-02-15T06:12:52.108Z,13.25
2023-02-15T06:15:18.873Z,12.75
2023-02-15T06:17:45.665Z,13.73
2023-02-15T06:20:13.165Z,13.57
2023-02-15T06:22:39.870Z,12.68
2023-02-15T06:25:06.931Z,13.48
2023-02-15T06:27:33.676Z,13.23
2023-02-15T06:30:00.454Z,12.95
2023-02-15T06:32:27.173Z,13.73
2023-02-15T06:34:53.892Z,12.45
2023-02-15T06:37:20.612Z,13.48
2023-02-15T06:39:47.315Z,39.60
2023-02-15T06:42:14.023Z,24.55
2023-02-15T06:44:40.701Z,29.42
2023-02-15T06:47:07.416Z,19.10
2023-02-15T06:49:34.193Z,24.67
2023-02-15T06:52:00.963Z,21.80
2023-02-15T06:54:27.687Z,24.60
2023-02-15T06:56:54.524Z,17.60
2023-02-15T06:59:21.277Z,13.63
2023-02-15T07:01:48.389Z,14.27
2023-02-15T07:04:15.141Z,12.95
2023-02-15T07:06:41.943Z,13.63
2023-02-15T07:09:08.668Z,13.38
2023-02-15T07:11:54.322Z,13.50
2023-02-15T07:14:21.278Z,12.85
2023-02-15T07:16:48.057Z,12.48
2023-02-15T07:19:14.833Z,13.25
2023-02-15T07:21:41.667Z,12.43
2023-02-15T07:24:08.806Z,12.65
2023-02-15T07:26:35.539Z,12.52
2023-02-15T07:29:02.411Z,12.48
2023-02-15T07:31:29.333Z,13.23
2023-02-15T07:33:56.154Z,12.60
2023-02-15T07:36:22.890Z,12.65
2023-02-15T07:38:49.664Z,12.95
2023-02-15T07:41:17.187Z,12.95
2023-02-15T07:43:45.287Z,12.70
2023-02-15T07:46:17.647Z,12.63
2023-02-15T07:48:45.397Z,12.27
2023-02-15T07:51:12.834Z,13.13
2023-02-15T07:53:40.253Z,12.98
2023-02-15T07:56:12.157Z,12.93
2023-02-15T07:58:56.757Z,13.05
2023-02-15T08:01:23.804Z,13.25
2023-02-15T08:03:51.141Z,12.35
2023-02-15T08:06:18.378Z,12.73
2023-02-15T08:08:45.345Z,12.88
2023-02-15T08:11:27.301Z,12.15
2023-02-15T08:13:55.341Z,11.82
2023-02-15T08:16:32.383Z,11.80
2023-02-15T08:19:01.249Z,11.95
2023-02-15T08:21:29.725Z,10.75
2023-02-15T08:23:57.873Z,9.90
2023-02-15T08:26:25.759Z,10.25
2023-02-15T08:28:52.884Z,10.80
2023-02-15T08:31:20.309Z,9.75
2023-02-15T08:33:48.708Z,11.05
2023-02-15T08:36:19.558Z,10.13
2023-02-15T08:38:46.674Z,9.63
2023-02-15T08:41:18.006Z,9.75
2023-02-15T08:43:44.799Z,10.65
2023-02-15T08:46:12.659Z,10.20
2023-02-15T08:48:39.785Z,9.75
2023-02-15T08:51:15.200Z,10.52
2023-02-15T08:53:50.032Z,10.27
2023-02-15T08:56:19.350Z,9.30
2023-02-15T08:58:46.682Z,9.48
2023-02-15T09:01:20.836Z,10.15
2023-02-15T09:03:50.172Z,10.68
2023-02-15T09:06:17.935Z,10.20
2023-02-15T09:08:44.833Z,9.88
2023-02-15T09:11:14.469Z,10.20
2023-02-15T09:13:41.258Z,9.23
2023-02-15T09:16:09.607Z,9.27
2023-02-15T09:18:40.266Z,9.63
2023-02-15T09:21:09.944Z,9.05
2023-02-15T09:23:37.230Z,10.02
2023-02-15T09:26:06.357Z,9.80
2023-02-15T09:28:33.884Z,9.38
2023-02-15T09:31:07.127Z,9.10
2023-02-15T09:33:38.132Z,9.45
2023-02-15T09:36:06.219Z,9.75
2023-02-15T09:38:36.208Z,9.80
2023-02-15T09:41:32.504Z,9.38
2023-02-15T09:44:36.140Z,9.75
2023-02-15T09:47:20.125Z,9.27
2023-02-15T09:49:55.799Z,8.82
2023-02-15T09:52:54.656Z,8.52
2023-02-15T09:55:46.284Z,8.40
2023-02-15T09:58:31.424Z,9.35
2023-02-15T10:01:20.353Z,9.32
2023-02-15T10:04:33.673Z,9.00
2023-02-15T10:07:35.594Z,8.13
2023-02-15T10:10:20.218Z,8.75
2023-02-15T10:13:05.784Z,8.85
2023-02-15T10:15:58.195Z,8.70
2023-02-15T10:18:46.081Z,9.32
2023-02-15T10:21:45.733Z,9.93
2023-02-15T10:24:42.107Z,8.95
2023-02-15T10:27:20.119Z,8.73
2023-02-15T10:30:05.714Z,9.48
2023-02-15T10:32:45.298Z,9.18
2023-02-15T10:35:34.477Z,9.18
2023-02-15T10:38:20.988Z,9.13
2023-02-15T10:41:08.586Z,8.23
2023-02-15T10:43:59.811Z,9.18
2023-02-15T10:46:56.878Z,8.65
2023-02-15T10:49:59.561Z,9.20
2023-02-15T10:52:58.043Z,9.02
2023-02-15T10:55:42.846Z,9.95
2023-02-15T10:58:30.880Z,9.35
2023-02-15T11:01:31.578Z,9.25
2023-02-15T11:04:17.474Z,9.43
2023-02-15T11:06:55.742Z,9.25
2023-02-15T11:09:25.599Z,8.70
2023-02-15T11:11:58.133Z,9.57
2023-02-15T11:14:47.465Z,9.23
2023-02-15T11:17:19.351Z,9.40
2023-02-15T11:20:08.167Z,9.23
2023-02-15T11:22:35.838Z,8.93
2023-02-15T11:25:15.285Z,9.70
2023-02-15T11:27:43.333Z,9.63
2023-02-15T11:30:36.337Z,9.85
2023-02-15T11:33:07.250Z,9.63
2023-02-15T11:35:38.886Z,10.40
2023-02-15T11:38:21.809Z,9.32
2023-02-15T11:40:51.536Z,8.98
2023-02-15T11:43:33.879Z,8.88
2023-02-15T11:46:00.805Z,9.93
2023-02-15T11:48:31.192Z,10.30
2023-02-15T11:50:58.574Z,10.60
2023-02-15T11:53:29.520Z,8.50
2023-02-15T11:55:56.771Z,9.30
2023-02-15T11:58:38.732Z,9.48
2023-02-15T12:01:21.196Z,9.48
2023-02-15T12:03:58.407Z,10.05
2023-02-15T12:06:30.278Z,9.32
2023-02-15T12:09:25.533Z,9.07
2023-02-15T12:11:52.361Z,9.90
2023-02-15T12:14:19.172Z,9.80
2023-02-15T12:16:51.342Z,9.88
2023-02-15T12:19:42.637Z,9.60
2023-02-15T12:22:24.760Z,9.85
2023-02-15T12:24:55.135Z,10.13
2023-02-15T12:27:31.247Z,10.13
2023-02-15T12:30:32.420Z,10.00
2023-02-15T12:33:22.367Z,10.40
2023-02-15T12:35:55.799Z,9.07
2023-02-15T12:38:28.823Z,10.65
2023-02-15T12:41:05.115Z,10.18
2023-02-15T12:43:37.082Z,9.38
2023-02-15T12:46:24.439Z,10.18
2023-02-15T12:49:09.989Z,10.20
2023-02-15T12:51:48.450Z,9.23
2023-02-15T12:54:25.355Z,9.63
2023-02-15T12:56:52.725Z,10.10
2023-02-15T12:59:23.560Z,9.48
2023-02-15T13:01:54.262Z,10.23
2023-02-15T13:04:29.209Z,10.25
2023-02-15T13:07:00.469Z,10.00
2023-02-15T13:09:39.329Z,10.07
2023-02-15T13:12:31.579Z,10.18
2023-02-15T13:15:00.045Z,9.52
2023-02-15T13:17:32.750Z,9.23
2023-02-15T13:20:10.378Z,9.60
2023-02-15T13:22:44.275Z,9.27
2023-02-15T13:25:23.613Z,10.40
2023-02-15T13:27:54.511Z,9.98
2023-02-15T13:30:27.212Z,10.27
2023-02-15T13:33:02.555Z,9.05
2023-02-15T13:35:36.700Z,10.55
2023-02-15T13:38:30.542Z,11.20
2023-02-15T13:41:04.922Z,10.25
2023-02-15T13:43:52.622Z,9.70
2023-02-15T13:46:34.944Z,9.93
2023-02-15T13:49:24.298Z,10.77
2023-02-15T13:52:06.774Z,9.63
2023-02-15T13:55:10.776Z,9.80
2023-02-15T13:57:55.711Z,9.45
2023-02-15T14:00:44.356Z,9.43
2023-02-15T14:03:46.642Z,9.75
2023-02-15T14:06:41.143Z,9.82
2023-02-15T14:09:19.892Z,10.07
2023-02-15T14:12:13.981Z,10.38
2023-02-15T14:15:14.692Z,9.75
2023-02-15T14:17:51.313Z,9.10
2023-02-15T14:20:30.160Z,10.00
2023-02-15T14:23:12.759Z,9.80
2023-02-15T14:25:45.510Z,9.40
2023-02-15T14:28:38.038Z,9.65
2023-02-15T14:31:07.954Z,9.70
2023-02-15T14:33:48.038Z,9.23
2023-02-15T14:36:20.466Z,9.35
2023-02-15T14:39:40.115Z,10.43
2023-02-15T14:42:49.442Z,10.15
2023-02-15T14:45:44.603Z,10.40
2023-02-15T14:48:34.296Z,9.80
2023-02-15T14:51:01.549Z,10.43
2023-02-15T14:53:32.055Z,10.68
2023-02-15T14:56:10.806Z,9.95
2023-02-15T14:58:39.038Z,10.23
2023-02-15T15:01:08.740Z,10.10
2023-02-15T15:03:38.816Z,10.45
2023-02-15T15:06:06.350Z,9.98
2023-02-15T15:08:41.159Z,10.07
2023-02-15T15:11:47.947Z,9.93
2023-02-15T15:14:33.165Z,10.38
2023-02-15T15:17:02.337Z,10.30
2023-02-15T15:19:52.260Z,10.90
2023-02-15T15:22:24.850Z,9.98
2023-02-15T15:24:56.380Z,9.57
2023-02-15T15:27:45.900Z,10.02
2023-02-15T15:30:15.688Z,9.40
2023-02-15T15:32:55.032Z,10.13
2023-02-15T15:35:55.733Z,10.52
2023-02-15T15:38:59.800Z,10.88
2023-02-15T15:41:42.685Z,10.75
2023-02-15T15:44:47.353Z,10.27
2023-02-15T15:47:35.752Z,9.93
2023-02-15T15:50:13.042Z,11.27
2023-02-15T15:52:41.691Z,10.43
2023-02-15T15:55:21.236Z,10.63
2023-02-15T15:57:52.283Z,10.50
2023-02-15T16:00:47.373Z,11.15
2023-02-15T16:03:25.751Z,10.63
2023-02-15T16:05:57.063Z,11.07
2023-02-15T16:08:38.466Z,11.65
2023-02-15T16:11:17.257Z,11.13
2023-02-15T16:13:44.770Z,11.50
2023-02-15T16:16:14.417Z,11.25
2023-02-15T16:18:43.297Z,11.50
2023-02-15T16:21:19.093Z,11.50
2023-02-15T16:24:06.229Z,11.18
2023-02-15T16:26:57.342Z,11.18
2023-02-15T16:29:30.044Z,11.25
2023-02-15T16:32:25.936Z,11.75
2023-02-15T16:34:58.806Z,10.75
2023-02-15T16:37:34.614Z,11.23
2023-02-15T16:40:01.666Z,11.20
2023-02-15T16:42:28.542Z,11.32
2023-02-15T16:45:06.142Z,10.70
2023-02-15T16:47:40.925Z,11.23
2023-02-15T16:50:21.816Z,11.80
2023-02-15T16:52:48.856Z,10.95
2023-02-15T16:55:26.636Z,12.25
2023-02-15T16:57:58.536Z,12.15
2023-02-15T17:00:29.487Z,10.98
2023-02-15T17:03:02.604Z,10.75
2023-02-15T17:05:41.167Z,11.98
2023-02-15T17:08:18.014Z,55.80
2023-02-15T17:11:00.039Z,67.05
2023-02-15T17:13:28.617Z,18.02
2023-02-15T17:16:02.052Z,31.35
2023-02-15T17:18:32.130Z,51.42
2023-02-15T17:21:02.271Z,50.15
2023-02-15T17:23:33.295Z,53.55
2023-02-15T17:26:02.535Z,27.48
2023-02-15T17:28:31.903Z,17.42
2023-02-15T17:30:59.668Z,12.55
2023-02-15T17:33:47.715Z,12.68
2023-02-15T17:36:22.914Z,11.60
2023-02-15T17:38:59.040Z,12.20
2023-02-15T17:41:28.054Z,12.10
2023-02-15T17:43:55.036Z,12.48
2023-02-15T17:46:25.498Z,12.05
2023-02-15T17:49:24.904Z,12.02
2023-02-15T17:51:51.753Z,12.15
2023-02-15T17:54:37.320Z,12.63
2023-02-15T17:57:06.791Z,12.23
2023-02-15T17:59:33.528Z,13.55
2023-02-15T18:02:18.804Z,11.77
2023-02-15T18:05:04.632Z,12.73
2023-02-15T18:07:50.285Z,12.15
2023-02-15T18:10:37.822Z,12.63
2023-02-15T18:13:04.940Z,13.50
2023-02-15T18:15:31.807Z,12.57
2023-02-15T18:17:58.573Z,13.07
2023-02-15T18:20:31.528Z,12.13
2023-02-15T18:22:58.254Z,12.95
2023-02-15T18:25:25.598Z,13.65
2023-02-15T18:27:55.074Z,13.13
2023-02-15T18:30:26.549Z,13.45
2023-02-15T18:32:57.015Z,12.55
2023-02-15T18:35:26.527Z,12.73
2023-02-15T18:37:53.993Z,13.35
2023-02-15T18:40:23.391Z,14.23
2023-02-15T18:42:50.259Z,13.27
2023-02-15T18:45:23.569Z,14.40
2023-02-15T18:47:51.063Z,14.65
2023-02-15T18:50:20.252Z,13.57
2023-02-15T18:52:51.366Z,14.20
2023-02-15T18:55:23.453Z,14.48
2023-02-15T18:57:52.274Z,13.55
2023-02-15T19:00:22.542Z,13.05
2023-02-15T19:02:49.246Z,13.38
2023-02-15T19:05:17.853Z,13.45
2023-02-15T19:07:54.012Z,15.00
2023-02-15T19:10:24.212Z,15.13
2023-02-15T19:12:52.382Z,15.10
2023-02-15T19:15:26.206Z,14.77
2023-02-15T19:17:54.290Z,14.35
2023-02-15T19:20:23.967Z,15.05
2023-02-15T19:22:52.509Z,14.18
2023-02-15T19:25:27.964Z,13.88
2023-02-15T19:27:56.180Z,15.95
2023-02-15T19:30:31.392Z,14.48
2023-02-15T19:32:59.147Z,15.23
2023-02-15T19:35:30.005Z,14.65
2023-02-15T19:37:59.216Z,15.07
2023-02-15T19:40:29.387Z,15.70
2023-02-15T19:42:56.303Z,14.32
2023-02-15T19:45:25.649Z,15.57
2023-02-15T19:47:55.054Z,16.65
2023-02-15T19:50:28.592Z,17.17
2023-02-15T19:52:55.644Z,16.33
2023-02-15T19:55:29.232Z,16.15
2023-02-15T19:57:57.664Z,15.45
2023-02-15T20:00:26.276Z,15.77
2023-02-15T20:02:53.677Z,16.55
2023-02-15T20:05:21.485Z,16.48
2023-02-15T20:07:50.301Z,16.88
2023-02-15T20:10:22.642Z,17.45
2023-02-15T20:12:50.060Z,16.95
2023-02-15T20:15:20.381Z,16.13
2023-02-15T20:17:47.893Z,17.48
2023-02-15T20:20:15.096Z,16.38
2023-02-15T20:22:44.096Z,17.40
2023-02-15T20:25:17.368Z,16.45
2023-02-15T20:27:44.205Z,18.08
2023-02-15T20:30:20.130Z,16.70
2023-02-15T20:32:47.430Z,16.92
2023-02-15T20:35:16.250Z,16.70
2023-02-15T20:37:45.791Z,16.58
2023-02-15T20:40:20.857Z,17.15
2023-02-15T20:42:47.922Z,16.83
2023-02-15T20:45:26.594Z,17.08
2023-02-15T20:47:53.754Z,16.77
2023-02-15T20:50:30.035Z,16.55
2023-02-15T20:52:58.626Z,17.42
2023-02-15T20:55:30.991Z,17.00
2023-02-15T20:57:58.768Z,17.58
2023-02-15T21:00:28.335Z,17.58
2023-02-15T21:02:59.078Z,16.58
2023-02-15T21:05:35.000Z,16.50
2023-02-15T21:08:01.969Z,16.15
2023-02-15T21:10:34.145Z,16.70
2023-02-15T21:13:01.346Z,16.77
2023-02-15T21:15:35.049Z,16.45
2023-02-15T21:18:07.648Z,16.15
2023-02-15T21:20:45.921Z,16.15
2023-02-15T21:23:16.485Z,16.42
2023-02-15T21:25:44.701Z,16.98
2023-02-15T21:28:19.015Z,16.55
2023-02-15T21:30:46.762Z,16.17
2023-02-15T21:33:13.584Z,16.67
2023-02-15T21:35:40.713Z,16.98
2023-02-15T21:38:10.207Z,16.88
2023-02-15T21:40:36.957Z,16.58
2023-02-15T21:43:31.820Z,32.10
2023-02-15T21:46:17.747Z,27.95
2023-02-15T21:48:46.033Z,30.65
2023-02-15T21:51:31.548Z,45.60
2023-02-15T21:53:58.382Z,32.10
2023-02-15T21:56:25.154Z,110.78
2023-02-15T21:58:51.927Z,21.27
2023-02-15T22:01:24.710Z,58.38
2023-02-15T22:03:54.592Z,34.03
2023-02-15T22:06:21.725Z,25.30
2023-02-15T22:08:48.660Z,31.10
2023-02-15T22:11:18.717Z,29.48
2023-02-15T22:13:47.069Z,22.30
2023-02-15T22:16:16.716Z,19.02
2023-02-15T22:18:43.698Z,18.17
2023-02-15T22:21:11.583Z,18.10
2023-02-15T22:23:39.040Z,19.20
2023-02-15T22:26:11.453Z,17.70
2023-02-15T22:28:39.962Z,17.55
2023-02-15T22:31:12.032Z,17.85
2023-02-15T22:33:39.090Z,18.65
2023-02-15T22:36:06.136Z,18.27
2023-02-15T22:38:32.983Z,18.95
2023-02-15T22:41:04.026Z,18.25
2023-02-15T22:43:39.615Z,18.73
2023-02-15T22:46:13.471Z,18.02
2023-02-15T22:48:41.901Z,19.40
2023-02-15T22:51:13.579Z,17.92
2023-02-15T22:53:40.388Z,18.58
2023-02-15T22:56:13.431Z,19.50
2023-02-15T22:58:40.387Z,19.27
2023-02-15T23:01:21.900Z,17.70
2023-02-15T23:03:48.699Z,18.13
2023-02-15T23:06:16.024Z,17.80
2023-02-15T23:08:42.802Z,19.45
2023-02-15T23:11:10.921Z,19.20
2023-02-15T23:13:38.239Z,19.58
2023-02-15T23:16:07.720Z,20.33
2023-02-15T23:18:38.114Z,19.25
2023-02-15T23:21:20.556Z,21.85
2023-02-15T23:23:52.978Z,20.63
2023-02-15T23:26:23.815Z,19.77
2023-02-15T23:28:51.918Z,21.58
2023-02-15T23:31:21.636Z,19.73
2023-02-15T23:33:49.504Z,19.90
2023-02-15T23:36:31.949Z,19.65
2023-02-15T23:39:37.910Z,20.70
2023-02-15T23:42:10.499Z,20.15
2023-02-15T23:44:38.391Z,19.75
2023-02-15T23:47:07.139Z,20.80
2023-02-15T23:49:33.936Z,19.95
2023-02-15T23:52:01.721Z,21.02
2023-02-15T23:54:28.497Z,20.23
2023-02-15T23:57:00.963Z,21.13
2023-02-15T23:59:30.021Z,21.40
